Time,TemperatureF,DewpointF,PressureIn,WindDirection,WindDirectionDegrees,WindSpeedMPH,WindSpeedGustMPH,Humidity,HourlyPrecipIn,Conditions,Clouds,dailyrainin,SoftwareType,DateUTC
2013-09-05 00:00:00,61.2,56.6,29.91,SW,225,0.0,0.0,85,0.00,,,0.00,WeatherCatV1.21B27,2013-09-05 07:00:00,
2013-09-05 00:05:00,61.1,56.5,29.91,SW,225,0.0,0.0,85,0.00,,,0.00,WeatherCatV1.21B27,2013-09-05 07:05:00,
2013-09-05 00:10:00,61.1,56.5,29.91,SW,225,0.0,0.0,85,0.00,,,0.00,WeatherCatV1.21B27,2013-09-05 07:10:00,
2013-09-05 00:15:00,61.1,56.5,29.91,SW,225,0.0,0.0,85,0.00,,,0.00,WeatherCatV1.21B27,2013-09-05 07:15:00,
2013-09-05 00:20:00,61.2,56.6,29.91,SW,225,0.0,0.0,85,0.00,,,0.00,WeatherCatV1.21B27,2013-09-05 07:20:00,
2013-09-05 00:25:00,61.2,56.6,29.91,SW,225,0.0,0.0,85,0.00,,,0.00,WeatherCatV1.21B27,2013-09-05 07:25:00,
2013-09-05 00:30:00,61.2,56.6,29.91,SW,225,0.0,0.0,85,0.00,,,0.00,WeatherCatV1.21B27,2013-09-05 07:30:00,
2013-09-05 00:35:00,61.0,56.5,29.91,SW,225,0.0,0.0,85,0.00,,,0.00,WeatherCatV1.21B27,2013-09-05 07:35:00,
2013-09-05 00:40:00,61.0,56.5,29.91,SW,225,0.0,0.0,85,0.00,,,0.00,WeatherCatV1.21B27,2013-09-05 07:40:00,
2013-09-05 00:45:00,61.0,56.5,29.91,SW,225,0.0,0.0,85,0.00,,,0.00,WeatherCatV1.21B27,2013-09-05 07:45:00,
2013-09-05 00:50:00,61.1,56.9,29.90,SW,225,0.0,3.0,86,0.00,,,0.00,WeatherCatV1.21B27,2013-09-05 07:50:00,
2013-09-05 00:55:00,61.1,56.9,29.90,SW,225,0.0,3.0,86,0.00,,,0.00,WeatherCatV1.21B27,2013-09-05 07:55:00,
2013-09-05 01:00:00,61.1,56.9,29.90,SW,225,0.0,3.0,86,0.00,,,0.00,WeatherCatV1.21B27,2013-09-05 08:00:00,
2013-09-05 01:05:00,61.0,56.5,29.90,SW,225,0.0,1.0,85,0.00,,,0.00,WeatherCatV1.21B27,2013-09-05 08:05:00,
2013-09-05 01:10:00,61.0,56.5,29.90,SW,225,0.0,1.0,85,0.00,,,0.00,WeatherCatV1.21B27,2013-09-05 08:10:00,
2013-09-05 01:15:00,61.0,56.5,29.90,SW,225,0.0,1.0,85,0.00,,,0.00,WeatherCatV1.21B27,2013-09-05 08:15:00,
2013-09-05 01:20:00,61.3,56.4,29.89,SW,225,0.0,0.0,84,0.00,,,0.00,WeatherCatV1.21B27,2013-09-05 08:20:00,
2013-09-05 01:25:00,61.3,56.4,29.89,SW,225,0.0,0.0,84,0.00,,,0.00,WeatherCatV1.21B27,2013-09-05 08:25:00,
2013-09-05 01:30:00,61.3,56.4,29.89,SW,225,0.0,0.0,84,0.00,,,0.00,WeatherCatV1.21B27,2013-09-05 08:30:00,
2013-09-05 01:35:00,60.3,56.1,29.89,SW,225,0.0,0.0,86,0.00,,,0.00,WeatherCatV1.21B27,2013-09-05 08:35:00,
2013-09-05 01:40:00,60.3,56.1,29.89,SW,225,0.0,0.0,86,0.00,,,0.00,WeatherCatV1.21B27,2013-09-05 08:40:00,
2013-09-05 01:45:00,60.3,56.1,29.89,SW,225,0.0,0.0,86,0.00,,,0.00,WeatherCatV1.21B27,2013-09-05 08:45:00,
2013-09-05 01:50:00,60.5,56.6,29.89,SW,225,0.0,0.0,87,0.00,,,0.00,WeatherCatV1.21B27,2013-09-05 08:50:00,
2013-09-05 01:55:00,60.5,56.6,29.89,SW,225,0.0,0.0,87,0.00,,,0.00,WeatherCatV1.21B27,2013-09-05 08:55:00,
2013-09-05 02:00:00,60.5,56.6,29.89,SW,225,0.0,0.0,87,0.00,,,0.00,WeatherCatV1.21B27,2013-09-05 09:00:00,
2013-09-05 02:05:00,60.3,56.1,29.89,WSW,248,0.0,3.0,86,0.00,,,0.00,WeatherCatV1.21B27,2013-09-05 09:05:00,
2013-09-05 02:10:00,60.3,56.1,29.89,WSW,248,0.0,3.0,86,0.00,,,0.00,WeatherCatV1.21B27,2013-09-05 09:10:00,
2013-09-05 02:15:00,60.3,56.1,29.89,WSW,248,0.0,3.0,86,0.00,,,0.00,WeatherCatV1.21B27,2013-09-05 09:15:00,
2013-09-05 02:20:00,59.6,55.7,29.89,WSW,248,0.0,2.0,87,0.00,,,0.00,WeatherCatV1.21B27,2013-09-05 09:20:00,
2013-09-05 02:25:00,59.6,55.7,29.89,WSW,248,0.0,2.0,87,0.00,,,0.00,WeatherCatV1.21B27,2013-09-05 09:25:00,
2013-09-05 02:30:00,59.6,55.7,29.89,WSW,248,0.0,2.0,87,0.00,,,0.00,WeatherCatV1.21B27,2013-09-05 09:30:00,
2013-09-05 02:35:00,59.3,55.7,29.90,WSW,248,0.0,0.0,88,0.00,,,0.00,WeatherCatV1.21B27,2013-09-05 09:35:00,
2013-09-05 02:40:00,59.3,55.7,29.90,WSW,248,0.0,0.0,88,0.00,,,0.00,WeatherCatV1.21B27,2013-09-05 09:40:00,
2013-09-05 02:45:00,59.3,55.7,29.90,WSW,248,0.0,0.0,88,0.00,,,0.00,WeatherCatV1.21B27,2013-09-05 09:45:00,
2013-09-05 02:50:00,59.3,56.4,29.89,WSW,248,0.0,0.0,90,0.00,,,0.00,WeatherCatV1.21B27,2013-09-05 09:50:00,
2013-09-05 02:55:00,59.3,56.4,29.89,WSW,248,0.0,0.0,90,0.00,,,0.00,WeatherCatV1.21B27,2013-09-05 09:55:00,
2013-09-05 03:00:00,59.3,56.4,29.89,WSW,248,0.0,0.0,90,0.00,,,0.00,WeatherCatV1.21B27,2013-09-05 10:00:00,
2013-09-05 03:05:00,59.1,56.5,29.90,WSW,248,0.0,2.0,91,0.00,,,0.00,WeatherCatV1.21B27,2013-09-05 10:05:00,
2013-09-05 03:10:00,59.1,56.5,29.90,WSW,248,0.0,2.0,91,0.00,,,0.00,WeatherCatV1.21B27,2013-09-05 10:10:00,
2013-09-05 03:15:00,59.1,56.5,29.90,WSW,248,0.0,2.0,91,0.00,,,0.00,WeatherCatV1.21B27,2013-09-05 10:15:00,
2013-09-05 03:20:00,58.9,56.6,29.89,SW,225,0.0,3.0,92,0.00,,,0.00,WeatherCatV1.21B27,2013-09-05 10:20:00,
2013-09-05 03:25:00,58.9,56.6,29.89,SW,225,0.0,3.0,92,0.00,,,0.00,WeatherCatV1.21B27,2013-09-05 10:25:00,
2013-09-05 03:30:00,58.9,56.6,29.89,SW,225,0.0,3.0,92,0.00,,,0.00,WeatherCatV1.21B27,2013-09-05 10:30:00,
2013-09-05 03:35:00,58.7,56.4,29.90,SW,225,0.0,3.0,92,0.00,,,0.00,WeatherCatV1.21B27,2013-09-05 10:35:00,
2013-09-05 03:40:00,58.7,56.4,29.90,SW,225,0.0,3.0,92,0.00,,,0.00,WeatherCatV1.21B27,2013-09-05 10:40:00,
2013-09-05 03:45:00,58.7,56.4,29.90,SW,225,0.0,3.0,92,0.00,,,0.00,WeatherCatV1.21B27,2013-09-05 10:45:00,
2013-09-05 03:50:00,58.6,56.6,29.90,SW,225,0.0,2.0,93,0.00,,,0.00,WeatherCatV1.21B27,2013-09-05 10:50:00,
2013-09-05 03:55:00,58.6,56.6,29.90,SW,225,0.0,2.0,93,0.00,,,0.00,WeatherCatV1.21B27,2013-09-05 10:55:00,
2013-09-05 04:00:00,58.6,56.6,29.90,SW,225,0.0,2.0,93,0.00,,,0.00,WeatherCatV1.21B27,2013-09-05 11:00:00,
2013-09-05 04:05:00,58.6,56.6,29.90,SW,225,0.0,0.0,93,0.00,,,0.00,WeatherCatV1.21B27,2013-09-05 11:05:00,
2013-09-05 04:10:00,58.6,56.6,29.90,SW,225,0.0,0.0,93,0.00,,,0.00,WeatherCatV1.21B27,2013-09-05 11:10:00,
2013-09-05 04:15:00,58.6,56.6,29.90,SW,225,0.0,0.0,93,0.00,,,0.00,WeatherCatV1.21B27,2013-09-05 11:15:00,
2013-09-05 04:20:00,58.5,56.5,29.90,SW,225,0.0,0.0,93,0.00,,,0.00,WeatherCatV1.21B27,2013-09-05 11:20:00,
2013-09-05 04:25:00,58.5,56.5,29.90,SW,225,0.0,0.0,93,0.00,,,0.00,WeatherCatV1.21B27,2013-09-05 11:25:00,
2013-09-05 04:30:00,58.5,56.5,29.90,SW,225,0.0,0.0,93,0.00,,,0.00,WeatherCatV1.21B27,2013-09-05 11:30:00,
2013-09-05 04:35:00,58.5,56.5,29.90,SW,225,0.0,0.0,93,0.00,,,0.00,WeatherCatV1.21B27,2013-09-05 11:35:00,
2013-09-05 04:40:00,58.5,56.5,29.90,SW,225,0.0,0.0,93,0.00,,,0.00,WeatherCatV1.21B27,2013-09-05 11:40:00,
2013-09-05 04:45:00,58.5,56.5,29.90,SW,225,0.0,0.0,93,0.00,,,0.00,WeatherCatV1.21B27,2013-09-05 11:45:00,
2013-09-05 04:50:00,58.4,56.4,29.90,SW,225,0.0,0.0,93,0.00,,,0.00,WeatherCatV1.21B27,2013-09-05 11:50:00,
2013-09-05 04:55:00,58.4,56.4,29.90,SW,225,0.0,0.0,93,0.00,,,0.00,WeatherCatV1.21B27,2013-09-05 11:55:00,
2013-09-05 05:09:00,58.4,56.4,29.90,SW,225,0.0,0.0,93,0.00,,,0.00,WeatherCatV1.21B27,2013-09-05 12:09:00,
2013-09-05 05:25:00,58.7,56.4,29.91,SW,219,0.0,0.0,92,0.00,,,0.00,WeatherCatV1.21B27,2013-09-05 12:25:00,
2013-09-05 05:40:00,58.3,56.0,29.91,SW,219,0.0,0.0,92,0.00,,,0.00,WeatherCatV1.21B27,2013-09-05 12:40:00,
2013-09-05 05:55:00,58.0,56.0,29.91,SW,219,0.0,0.0,93,0.00,,,0.00,WeatherCatV1.21B27,2013-09-05 12:55:00,
2013-09-05 06:10:00,58.0,56.3,29.91,SW,219,0.0,1.0,94,0.00,,,0.00,WeatherCatV1.21B27,2013-09-05 13:10:00,
2013-09-05 06:40:00,58.3,56.6,29.92,SW,219,0.0,0.0,94,0.00,,,0.00,WeatherCatV1.21B27,2013-09-05 13:40:00,
2013-09-05 06:55:00,58.8,56.8,29.92,SW,219,3.0,3.0,93,0.00,,,0.00,WeatherCatV1.21B27,2013-09-05 13:55:00,
2013-09-05 07:10:00,59.4,57.1,29.92,SW,219,0.0,0.0,92,0.00,,,0.00,WeatherCatV1.21B27,2013-09-05 14:10:00,
2013-09-05 07:25:00,61.4,58.8,29.92,SW,219,0.0,1.0,91,0.00,,,0.00,WeatherCatV1.21B27,2013-09-05 14:25:00,
2013-09-05 07:40:00,62.6,59.3,29.93,SW,219,0.0,1.0,89,0.00,,,0.00,WeatherCatV1.21B27,2013-09-05 14:40:00,
2013-09-05 07:55:00,63.7,59.4,29.93,WNW,286,0.0,2.0,86,0.00,,,0.00,WeatherCatV1.21B27,2013-09-05 14:55:00,
2013-09-05 08:10:00,65.2,59.9,29.93,WNW,292,0.0,3.0,83,0.00,,,0.00,WeatherCatV1.21B27,2013-09-05 15:10:00,
2013-09-05 08:25:00,66.1,59.7,29.94,NW,305,3.0,3.0,80,0.00,,,0.00,WeatherCatV1.21B27,2013-09-05 15:25:00,
2013-09-05 08:40:00,66.4,60.7,29.94,NNE,30,0.0,1.0,82,0.00,,,0.00,WeatherCatV1.21B27,2013-09-05 15:40:00,
2013-09-05 08:55:00,67.0,60.6,29.94,ENE,64,0.0,3.0,80,0.00,,,0.00,WeatherCatV1.21B27,2013-09-05 15:55:00,
2013-09-05 09:10:00,68.3,58.1,29.94,East,94,1.0,5.0,70,0.00,,,0.00,WeatherCatV1.21B27,2013-09-05 16:10:00,
2013-09-05 09:25:00,69.9,59.2,29.94,East,94,2.0,2.0,69,0.00,,,0.00,WeatherCatV1.21B27,2013-09-05 16:25:00,
2013-09-05 09:40:00,70.8,58.9,29.94,ESE,111,2.0,5.0,66,0.00,,,0.00,WeatherCatV1.21B27,2013-09-05 16:40:00,
2013-09-05 09:55:00,70.5,56.8,29.94,ESE,118,0.0,4.0,62,0.00,,,0.00,WeatherCatV1.21B27,2013-09-05 16:55:00,
2013-09-05 10:10:00,71.2,57.5,29.94,ESE,117,0.0,5.0,62,0.00,,,0.00,WeatherCatV1.21B27,2013-09-05 17:10:00,
2013-09-05 10:25:00,71.5,58.2,29.94,ESE,120,5.0,5.0,63,0.00,,,0.00,WeatherCatV1.21B27,2013-09-05 17:25:00,
2013-09-05 10:40:00,71.5,57.8,29.94,ESE,107,0.0,4.0,62,0.00,,,0.00,WeatherCatV1.21B27,2013-09-05 17:40:00,
2013-09-05 10:55:00,74.7,60.8,29.95,SE,126,0.0,1.0,62,0.00,,,0.00,WeatherCatV1.21B27,2013-09-05 17:55:00,
2013-09-05 11:10:00,75.4,59.6,29.95,SE,142,5.0,7.0,58,0.00,,,0.00,WeatherCatV1.21B27,2013-09-05 18:10:00,
2013-09-05 11:25:00,74.7,59.4,29.94,SE,128,5.0,10.0,59,0.00,,,0.00,WeatherCatV1.21B27,2013-09-05 18:25:00,
2013-09-05 11:40:00,76.2,60.8,29.95,ESE,107,1.0,1.0,59,0.00,,,0.00,WeatherCatV1.21B27,2013-09-05 18:40:00,
2013-09-05 11:55:00,77.6,59.6,29.94,ENE,77,2.0,3.0,54,0.00,,,0.00,WeatherCatV1.21B27,2013-09-05 18:55:00,
2013-09-05 12:10:00,77.4,60.0,29.94,SE,140,2.0,7.0,55,0.00,,,0.00,WeatherCatV1.21B27,2013-09-05 19:10:00,
2013-09-05 12:25:00,78.1,59.5,29.94,ESE,123,0.0,1.0,53,0.00,,,0.00,WeatherCatV1.21B27,2013-09-05 19:25:00,
2013-09-05 12:40:00,80.3,61.0,29.94,NNE,27,0.0,0.0,52,0.00,,,0.00,WeatherCatV1.21B27,2013-09-05 19:40:00,
2013-09-05 12:55:00,81.2,59.6,29.94,SSE,166,0.0,5.0,48,0.00,,,0.00,WeatherCatV1.21B27,2013-09-05 19:55:00,
2013-09-05 13:10:00,81.2,60.2,29.94,NNW,343,0.0,2.0,49,0.00,,,0.00,WeatherCatV1.21B27,2013-09-05 20:10:00,
2013-09-05 13:25:00,81.4,59.2,29.94,NNW,330,0.0,3.0,47,0.00,,,0.00,WeatherCatV1.21B27,2013-09-05 20:25:00,
2013-09-05 13:40:00,80.2,59.8,29.94,WNW,289,2.0,3.0,50,0.00,,,0.00,WeatherCatV1.21B27,2013-09-05 20:40:00,
2013-09-05 13:55:00,79.8,59.5,29.94,NNW,330,0.0,3.0,50,0.00,,,0.00,WeatherCatV1.21B27,2013-09-05 20:55:00,
2013-09-05 14:10:00,79.5,59.8,29.93,ESE,114,0.0,5.0,51,0.00,,,0.00,WeatherCatV1.21B27,2013-09-05 21:10:00,
2013-09-05 14:25:00,79.2,60.0,29.93,NNE,18,1.0,4.0,52,0.00,,,0.00,WeatherCatV1.21B27,2013-09-05 21:25:00,
2013-09-05 14:40:00,78.1,60.1,29.92,ESE,117,0.0,4.0,54,0.00,,,0.00,WeatherCatV1.21B27,2013-09-05 21:40:00,
2013-09-05 14:55:00,78.3,59.7,29.92,East,80,0.0,6.0,53,0.00,,,0.00,WeatherCatV1.21B27,2013-09-05 21:55:00,
2013-09-05 15:10:00,78.1,59.5,29.92,SE,136,2.0,6.0,53,0.00,,,0.00,WeatherCatV1.21B27,2013-09-05 22:10:00,
2013-09-05 15:25:00,77.7,59.2,29.92,West,265,0.0,4.0,53,0.00,,,0.00,WeatherCatV1.21B27,2013-09-05 22:25:00,
2013-09-05 15:40:00,76.7,58.8,29.91,SSE,164,0.0,1.0,54,0.00,,,0.00,WeatherCatV1.21B27,2013-09-05 22:40:00,
2013-09-05 15:55:00,77.1,59.2,29.91,SSE,166,0.0,3.0,54,0.00,,,0.00,WeatherCatV1.21B27,2013-09-05 22:55:00,
2013-09-05 16:10:00,74.9,59.1,29.91,SW,219,0.0,2.0,58,0.00,,,0.00,WeatherCatV1.21B27,2013-09-05 23:10:00,
2013-09-05 16:25:00,75.0,59.2,29.91,SW,234,0.0,1.0,58,0.00,,,0.00,WeatherCatV1.21B27,2013-09-05 23:25:00,
2013-09-05 16:40:00,75.2,59.4,29.91,SW,219,0.0,3.0,58,0.00,,,0.00,WeatherCatV1.21B27,2013-09-05 23:40:00,
2013-09-05 16:55:00,74.3,59.0,29.91,SW,225,0.0,3.0,59,0.00,,,0.00,WeatherCatV1.21B27,2013-09-05 23:55:00,
2013-09-05 17:10:00,72.6,58.8,29.90,SW,225,1.0,1.0,62,0.00,,,0.00,WeatherCatV1.21B27,2013-09-06 00:10:00,
2013-09-05 17:25:00,70.3,58.4,29.90,SW,234,0.0,2.0,66,0.00,,,0.00,WeatherCatV1.21B27,2013-09-06 00:25:00,
2013-09-05 17:40:00,70.1,58.2,29.89,SW,229,0.0,4.0,66,0.00,,,0.00,WeatherCatV1.21B27,2013-09-06 00:40:00,
2013-09-05 17:55:00,70.3,58.4,29.89,SW,232,0.0,3.0,66,0.00,,,0.00,WeatherCatV1.21B27,2013-09-06 00:55:00,
2013-09-05 18:10:00,69.6,58.2,29.89,SW,232,0.0,1.0,67,0.00,,,0.00,WeatherCatV1.21B27,2013-09-06 01:10:00,
2013-09-05 18:25:00,69.0,57.6,29.89,SW,232,1.0,1.0,67,0.00,,,0.00,WeatherCatV1.21B27,2013-09-06 01:25:00,
2013-09-05 18:40:00,68.5,57.5,29.89,SW,233,0.0,0.0,68,0.00,,,0.00,WeatherCatV1.21B27,2013-09-06 01:40:00,
2013-09-05 18:55:00,68.9,57.5,29.89,SW,233,0.0,0.0,67,0.00,,,0.00,WeatherCatV1.21B27,2013-09-06 01:55:00,
2013-09-05 19:10:00,68.9,57.1,29.89,SW,233,0.0,0.0,66,0.00,,,0.00,WeatherCatV1.21B27,2013-09-06 02:10:00,
2013-09-05 19:25:00,68.1,56.7,29.89,SW,233,0.0,1.0,67,0.00,,,0.00,WeatherCatV1.21B27,2013-09-06 02:25:00,
2013-09-05 19:40:00,67.9,56.1,29.89,SW,233,0.0,0.0,66,0.00,,,0.00,WeatherCatV1.21B27,2013-09-06 02:40:00,
2013-09-05 19:55:00,68.3,56.1,29.89,SW,233,0.0,0.0,65,0.00,,,0.00,WeatherCatV1.21B27,2013-09-06 02:55:00,
2013-09-05 20:10:00,67.7,56.3,29.89,SW,233,0.0,0.0,67,0.00,,,0.00,WeatherCatV1.21B27,2013-09-06 03:10:00,
2013-09-05 20:25:00,67.1,56.6,29.90,SW,233,0.0,0.0,69,0.00,,,0.00,WeatherCatV1.21B27,2013-09-06 03:25:00,
2013-09-05 20:40:00,66.7,56.6,29.90,SW,233,0.0,0.0,70,0.00,,,0.00,WeatherCatV1.21B27,2013-09-06 03:40:00,
2013-09-05 20:55:00,65.6,56.7,29.91,SW,233,0.0,0.0,73,0.00,,,0.00,WeatherCatV1.21B27,2013-09-06 03:55:00,
2013-09-05 21:10:00,65.2,56.3,29.91,ESE,111,1.0,6.0,73,0.00,,,0.00,WeatherCatV1.21B27,2013-09-06 04:10:00,
2013-09-05 21:25:00,64.8,56.3,29.91,SSE,158,0.0,4.0,74,0.00,,,0.00,WeatherCatV1.21B27,2013-09-06 04:25:00,
2013-09-05 21:40:00,64.1,56.0,29.92,SSE,157,0.0,4.0,75,0.00,,,0.00,WeatherCatV1.21B27,2013-09-06 04:40:00,
2013-09-05 21:55:00,63.8,55.7,29.92,SE,138,0.0,2.0,75,0.00,,,0.00,WeatherCatV1.21B27,2013-09-06 04:55:00,
2013-09-05 22:10:00,63.6,55.5,29.92,SSE,148,2.0,5.0,75,0.00,,,0.00,WeatherCatV1.21B27,2013-09-06 05:10:00,
2013-09-05 22:25:00,64.3,55.8,29.92,SSE,155,0.0,5.0,74,0.00,,,0.00,WeatherCatV1.21B27,2013-09-06 05:25:00,
2013-09-05 22:40:00,64.4,55.9,29.93,SSE,150,0.0,5.0,74,0.00,,,0.00,WeatherCatV1.21B27,2013-09-06 05:40:00,
2013-09-05 22:55:00,64.5,55.7,29.93,SSE,155,0.0,4.0,73,0.00,,,0.00,WeatherCatV1.21B27,2013-09-06 05:55:00,
2013-09-05 23:10:00,64.9,56.0,29.93,SSE,155,0.0,0.0,73,0.00,,,0.00,WeatherCatV1.21B27,2013-09-06 06:10:00,
2013-09-05 23:25:00,65.0,55.8,29.93,SSE,155,0.0,0.0,72,0.00,,,0.00,WeatherCatV1.21B27,2013-09-06 06:25:00,
2013-09-05 23:40:00,64.6,56.1,29.93,SSE,155,0.0,0.0,74,0.00,,,0.00,WeatherCatV1.21B27,2013-09-06 06:40:00,
2013-09-05 23:45:00,64.5,56.4,29.93,SSE,155,0.0,0.0,75,0.00,,,0.00,WeatherCatV1.21B27,2013-09-06 06:45:00,
2013-09-05 23:50:00,64.5,56.4,29.93,SSE,158,0.0,1.0,75,0.00,,,0.00,WeatherCatV1.21B27,2013-09-06 06:50:00,
2013-09-05 23:55:00,64.5,56.4,29.93,SSE,158,0.0,1.0,75,0.00,,,0.00,WeatherCatV1.21B27,2013-09-06 06:55:00,